createdAt,value
2022-12-17T00:00:15.463Z,95481.6
2022-12-17T00:01:18.137Z,95485.8
2022-12-17T00:02:20.954Z,95482.4
2022-12-17T00:03:24.388Z,95482.5
2022-12-17T00:04:26.833Z,95486.8
2022-12-17T00:05:29.062Z,95490.3
2022-12-17T00:06:31.560Z,95485
2022-12-17T00:07:33.486Z,95488.6
2022-12-17T00:08:35.708Z,95488.6
2022-12-17T00:09:38.226Z,95487.4
2022-12-17T00:10:39.943Z,95489.8
2022-12-17T00:11:42.151Z,95490.3
2022-12-17T00:12:44.361Z,95494.4
2022-12-17T00:13:46.846Z,95496.7
2022-12-17T00:14:49.051Z,95495.5
2022-12-17T00:15:51.781Z,95492.9
2022-12-17T00:16:57.212Z,95493.7
2022-12-17T00:17:59.489Z,95495.6
2022-12-17T00:19:01.719Z,95497.5
2022-12-17T00:20:03.917Z,95496
2022-12-17T00:21:06.133Z,95500.2
2022-12-17T00:22:08.351Z,95499.2
2022-12-17T00:23:11.971Z,95506.6
2022-12-17T00:24:14.503Z,95507.8
2022-12-17T00:25:16.731Z,95504.4
2022-12-17T00:26:18.957Z,95510.9
2022-12-17T00:27:20.334Z,95510.8
2022-12-17T00:28:22.263Z,95511.2
2022-12-17T00:29:24.765Z,95518.3
2022-12-17T00:30:27.241Z,95516
2022-12-17T00:31:30.031Z,95512
2022-12-17T00:32:32.661Z,95514.6
2022-12-17T00:33:36.982Z,95514.2
2022-12-17T00:34:39.979Z,95519.7
2022-12-17T00:35:42.518Z,95522.3
2022-12-17T00:36:44.990Z,95522.5
2022-12-17T00:37:47.564Z,95520.3
2022-12-17T00:38:49.811Z,95525.8
2022-12-17T00:40:58.223Z,95526.9
2022-12-17T00:42:00.740Z,95528
2022-12-17T00:43:03.227Z,95525
2022-12-17T00:44:05.435Z,95527.4
2022-12-17T00:45:07.342Z,95525.7
2022-12-17T00:46:10.282Z,95531.4
2022-12-17T00:47:13.026Z,95528.4
2022-12-17T00:48:15.423Z,95533.8
2022-12-17T00:49:17.631Z,95532.8
2022-12-17T00:50:19.842Z,95533.1
2022-12-17T00:51:22.365Z,95537.8
2022-12-17T00:52:24.010Z,95538.7
2022-12-17T00:53:25.685Z,95540.8
2022-12-17T00:54:27.885Z,95550
2022-12-17T00:55:30.112Z,95549.4
2022-12-17T00:56:32.629Z,95550.2
2022-12-17T00:57:35.142Z,95555.1
2022-12-17T00:58:37.644Z,95551.1
2022-12-17T00:59:39.853Z,95553.2
2022-12-17T01:00:42.695Z,95556.1
2022-12-17T01:01:45.772Z,95555.6
2022-12-17T01:02:48.825Z,95556
2022-12-17T01:03:53.150Z,95560
2022-12-17T01:06:01.302Z,95560.6
2022-12-17T01:07:03.523Z,95562.1
2022-12-17T01:08:06.018Z,95559.8
2022-12-17T01:09:08.292Z,95556.6
2022-12-17T01:10:11.879Z,95557.6
2022-12-17T01:11:14.409Z,95565.7
2022-12-17T01:12:16.381Z,95565.7
2022-12-17T01:13:18.610Z,95566.5
2022-12-17T01:14:20.836Z,95569
2022-12-17T01:15:23.056Z,95571.4
2022-12-17T01:16:25.601Z,95570.5
2022-12-17T01:17:28.166Z,95579
2022-12-17T01:18:30.104Z,95576.9
2022-12-17T01:19:32.624Z,95579.6
2022-12-17T01:20:34.868Z,95583.5
2022-12-17T01:21:37.354Z,95582.7
2022-12-17T01:22:39.839Z,95583
2022-12-17T01:23:42.069Z,95584.4
2022-12-17T01:24:44.555Z,95585.8
2022-12-17T01:25:46.503Z,95588.9
2022-12-17T01:26:48.805Z,95588.9
2022-12-17T01:27:51.037Z,95586.1
2022-12-17T01:28:54.851Z,95590
2022-12-17T01:29:58.047Z,95589.6
2022-12-17T01:31:00.080Z,95591.1
2022-12-17T01:32:02.924Z,95596.9
2022-12-17T01:33:05.609Z,95597.1
2022-12-17T01:34:07.789Z,95599.1
2022-12-17T01:35:10.334Z,95598.7
2022-12-17T01:36:12.851Z,95598.7
2022-12-17T01:37:15.371Z,95600.8
2022-12-17T01:38:17.588Z,95597.7
2022-12-17T01:39:20.113Z,95597.7
2022-12-17T01:40:22.343Z,95594.5
2022-12-17T01:41:24.829Z,95590.3
2022-12-17T01:42:26.769Z,95593.1
2022-12-17T01:43:29.001Z,95593.9
2022-12-17T01:44:31.498Z,95601.4
2022-12-17T01:45:34.247Z,95601.5
2022-12-17T01:46:36.585Z,95601.2
2022-12-17T01:47:38.809Z,95605.5
2022-12-17T01:48:41.003Z,95609
2022-12-17T01:49:43.005Z,95609.9
2022-12-17T01:50:45.533Z,95611.1
2022-12-17T01:51:48.039Z,95616
2022-12-17T01:52:50.516Z,95618
2022-12-17T01:53:53.019Z,95618.8
2022-12-17T01:54:55.235Z,95621.5
2022-12-17T01:55:57.725Z,95620.9
2022-12-17T01:56:59.923Z,95620
2022-12-17T01:58:02.167Z,95623.5
2022-12-17T01:59:04.124Z,95621.2
2022-12-17T02:00:06.344Z,95625
2022-12-17T02:01:09.971Z,95626
2022-12-17T02:02:13.250Z,95620.1
2022-12-17T02:03:16.508Z,95623.9
2022-12-17T02:04:19.252Z,95625.8
2022-12-17T02:05:21.747Z,95628.7
2022-12-17T02:06:24.305Z,95628.3
2022-12-17T02:07:26.692Z,95631.8
2022-12-17T02:08:28.921Z,95632.3
2022-12-17T02:09:31.138Z,95632.9
2022-12-17T02:10:33.621Z,95630.3
2022-12-17T02:11:35.270Z,95631.3
2022-12-17T02:12:36.907Z,95631.7
2022-12-17T02:13:39.930Z,95631.3
2022-12-17T02:14:41.872Z,95632.1
2022-12-17T02:15:44.101Z,95632.2
2022-12-17T02:16:46.363Z,95636.4
2022-12-17T02:17:48.710Z,95635.2
2022-12-17T02:18:50.949Z,95638.4
2022-12-17T02:19:53.435Z,95636.8
2022-12-17T02:20:55.916Z,95641.6
2022-12-17T02:21:58.189Z,95638.8
2022-12-17T02:23:00.381Z,95635.5
2022-12-17T02:24:02.888Z,95638.7
2022-12-17T02:25:05.402Z,95637
2022-12-17T02:26:07.335Z,95641.8
2022-12-17T02:27:09.537Z,95642.8
2022-12-17T02:28:11.751Z,95639.5
2022-12-17T02:29:14.264Z,95639.1
2022-12-17T02:30:16.499Z,95638.9
2022-12-17T02:31:18.992Z,95636.1
2022-12-17T02:32:21.576Z,95635.4
2022-12-17T02:33:24.061Z,95637.9
2022-12-17T02:34:26.545Z,95633
2022-12-17T02:35:28.461Z,95641.6
2022-12-17T02:36:30.947Z,95641.1
2022-12-17T02:37:33.496Z,95639.9
2022-12-17T02:38:35.711Z,95641.7
2022-12-17T02:39:38.184Z,95637.7
2022-12-17T02:40:40.686Z,95637.7
2022-12-17T02:41:43.171Z,95645.1
2022-12-17T02:42:45.658Z,95648.2
2022-12-17T02:43:48.156Z,95647.2
2022-12-17T02:44:50.371Z,95648.5
2022-12-17T02:45:53.172Z,95650.2
2022-12-17T02:46:55.849Z,95649.2
2022-12-17T02:47:58.349Z,95648.7
2022-12-17T02:49:00.273Z,95650.8
2022-12-17T02:50:02.195Z,95648.8
2022-12-17T02:51:04.406Z,95648.1
2022-12-17T02:52:06.884Z,95649.1
2022-12-17T02:53:08.866Z,95652.1
2022-12-17T02:54:11.356Z,95650.6
2022-12-17T02:55:13.566Z,95652.8
2022-12-17T02:56:16.053Z,95654
2022-12-17T02:57:17.982Z,95656.2
2022-12-17T02:58:20.467Z,95658.1
2022-12-17T02:59:23.017Z,95655.5
2022-12-17T03:00:25.525Z,95658.6
2022-12-17T03:01:28.675Z,95659.5
2022-12-17T03:02:32.342Z,95662.3
2022-12-17T03:03:36.479Z,95664.1
2022-12-17T03:04:39.919Z,95668.2
2022-12-17T03:06:47.375Z,95674.3
2022-12-17T03:07:49.587Z,95674.8
2022-12-17T03:08:51.860Z,95677.8
2022-12-17T03:09:53.524Z,95678.2
2022-12-17T03:10:56.007Z,95682.6
2022-12-17T03:11:57.933Z,95679.7
2022-12-17T03:13:00.428Z,95685.3
2022-12-17T03:14:03.519Z,95682
2022-12-17T03:15:06.377Z,95683.5
2022-12-17T03:16:08.341Z,95686.7
2022-12-17T03:17:11.125Z,95687.9
2022-12-17T03:18:13.809Z,95690.1
2022-12-17T03:19:15.440Z,95693.7
2022-12-17T03:20:17.926Z,95687
2022-12-17T03:21:20.133Z,95690.6
2022-12-17T03:22:22.610Z,95689.1
2022-12-17T03:23:24.821Z,95692.6
2022-12-17T03:24:27.327Z,95694.8
2022-12-17T03:25:29.813Z,95692.5
2022-12-17T03:26:32.295Z,95695.9
2022-12-17T03:27:34.228Z,95697.4
2022-12-17T03:28:36.464Z,95696.1
2022-12-17T03:29:38.654Z,95690.6
2022-12-17T03:31:46.277Z,95694.4
2022-12-17T03:32:48.233Z,95701.3
2022-12-17T03:33:50.739Z,95695
2022-12-17T03:34:53.253Z,95703.8
2022-12-17T03:35:55.452Z,95702.1
2022-12-17T03:36:57.947Z,95699.6
2022-12-17T03:38:00.171Z,95698.8
2022-12-17T03:39:02.658Z,95700.6
2022-12-17T03:40:05.186Z,95698.6
2022-12-17T03:41:07.667Z,95700.8
2022-12-17T03:42:10.177Z,95700.8
2022-12-17T03:43:12.652Z,95706.3
2022-12-17T03:44:15.140Z,95707.9
2022-12-17T03:45:17.341Z,95712.7
2022-12-17T03:46:20.291Z,95709.8
2022-12-17T03:47:23.001Z,95705.4
2022-12-17T03:48:25.248Z,95706.6
2022-12-17T03:49:27.764Z,95699.5
2022-12-17T03:50:30.260Z,95699.6
2022-12-17T03:51:32.458Z,95697.5
2022-12-17T03:52:34.951Z,95706.2
2022-12-17T03:53:39.069Z,95703.6
2022-12-17T03:54:41.631Z,95711.7
2022-12-17T03:55:44.148Z,95703.6
2022-12-17T03:56:46.644Z,95707.4
2022-12-17T03:57:49.113Z,95712.3
2022-12-17T03:58:51.321Z,95703.8
2022-12-17T03:59:53.532Z,95708.8
2022-12-17T04:00:56.017Z,95704.8
2022-12-17T04:01:58.884Z,95707.6
2022-12-17T04:03:02.239Z,95711.2
2022-12-17T04:04:05.014Z,95715.5
2022-12-17T04:05:07.527Z,95714
2022-12-17T04:06:09.719Z,95712
2022-12-17T04:07:12.201Z,95715.2
2022-12-17T04:08:14.123Z,95711.8
2022-12-17T04:09:16.601Z,95709.1
2022-12-17T04:10:18.811Z,95711.6
2022-12-17T04:11:21.384Z,95714.8
2022-12-17T04:12:23.862Z,95717.7
2022-12-17T04:13:26.842Z,95721.5
2022-12-17T04:14:29.030Z,95718.5
2022-12-17T04:15:31.736Z,95720.8
2022-12-17T04:16:34.045Z,95720.3
2022-12-17T04:17:36.237Z,95719.8
2022-12-17T04:18:38.754Z,95721.5
2022-12-17T04:19:40.999Z,95724
2022-12-17T04:20:43.505Z,95725.3
2022-12-17T04:21:45.426Z,95731.3
2022-12-17T04:23:01.991Z,95730.9
2022-12-17T04:24:04.289Z,95732.9
2022-12-17T04:25:06.496Z,95733.7
2022-12-17T04:26:08.999Z,95737.3
2022-12-17T04:27:11.488Z,95735
2022-12-17T04:28:13.393Z,95737
2022-12-17T04:29:15.326Z,95737
2022-12-17T04:30:17.834Z,95741.4
2022-12-17T04:31:20.801Z,95743.9
2022-12-17T04:32:22.984Z,95746.9
2022-12-17T04:33:25.183Z,95747
2022-12-17T04:34:27.399Z,95744.6
2022-12-17T04:35:29.933Z,95749.9
2022-12-17T04:36:32.171Z,95747.4
2022-12-17T04:37:34.382Z,95748.6
2022-12-17T04:38:36.579Z,95751.2
2022-12-17T04:39:38.778Z,95752.2
2022-12-17T04:40:40.982Z,95753.9
2022-12-17T04:41:43.189Z,95752.4
2022-12-17T04:42:45.722Z,95755.6
2022-12-17T04:43:48.192Z,95760.2
2022-12-17T04:44:50.403Z,95760.7
2022-12-17T04:46:59.007Z,95760.3
2022-12-17T04:48:00.942Z,95764.6
2022-12-17T04:49:03.433Z,95765.2
2022-12-17T04:50:05.985Z,95768.7
2022-12-17T04:51:08.240Z,95769.2
2022-12-17T04:52:10.461Z,95769.5
2022-12-17T04:53:12.940Z,95770.9
2022-12-17T04:54:15.431Z,95769.6
2022-12-17T04:55:17.621Z,95772.1
2022-12-17T04:56:20.107Z,95774.5
2022-12-17T04:57:22.057Z,95774.3
2022-12-17T04:58:24.008Z,95773.4
2022-12-17T04:59:26.517Z,95774.3
2022-12-17T05:00:28.985Z,95781.6
2022-12-17T05:01:32.098Z,95777
2022-12-17T05:03:41.983Z,95781.9
2022-12-17T05:04:44.396Z,95783.7
2022-12-17T05:05:46.895Z,95782.7
2022-12-17T05:06:49.412Z,95791.2
2022-12-17T05:07:51.988Z,95793.3
2022-12-17T05:08:54.190Z,95791.3
2022-12-17T05:09:56.695Z,95799
2022-12-17T05:10:59.181Z,95796.5
2022-12-17T05:12:01.383Z,95799.4
2022-12-17T05:13:03.303Z,95803.2
2022-12-17T05:14:05.274Z,95800.7
2022-12-17T05:15:07.484Z,95802
2022-12-17T05:16:09.555Z,95803.9
2022-12-17T05:17:12.113Z,95806.4
2022-12-17T05:18:14.317Z,95806.4
2022-12-17T05:19:16.533Z,95807.2
2022-12-17T05:20:19.016Z,95808.1
2022-12-17T05:21:21.247Z,95812.8
2022-12-17T05:22:23.785Z,95810.2
2022-12-17T05:23:26.022Z,95812.7
2022-12-17T05:24:28.533Z,95815.8
2022-12-17T05:25:31.090Z,95813.6
2022-12-17T05:26:33.326Z,95821.2
2022-12-17T05:27:35.530Z,95824.5
2022-12-17T05:28:37.743Z,95827
2022-12-17T05:29:40.262Z,95827.6
2022-12-17T05:30:42.476Z,95828.2
2022-12-17T05:31:45.006Z,95825.8
2022-12-17T05:32:47.566Z,95822.2
2022-12-17T05:33:50.052Z,95829
2022-12-17T05:34:54.521Z,95830.3
2022-12-17T05:36:00.685Z,95831.8
2022-12-17T05:37:02.620Z,95835
2022-12-17T05:38:05.139Z,95835.6
2022-12-17T05:39:07.097Z,95839.2
2022-12-17T05:41:14.293Z,95840.7
2022-12-17T05:42:16.812Z,95846.8
2022-12-17T05:43:19.020Z,95847.3
2022-12-17T05:44:21.201Z,95846.1
2022-12-17T05:45:23.734Z,95847.5
2022-12-17T05:46:26.671Z,95846.3
2022-12-17T05:47:29.280Z,95845.8
2022-12-17T05:48:31.491Z,95846.6
2022-12-17T05:49:33.989Z,95851.3
2022-12-17T05:50:36.196Z,95846.4
2022-12-17T05:51:40.552Z,95847.7
2022-12-17T05:52:43.075Z,95851.7
2022-12-17T05:53:45.326Z,95851.6
2022-12-17T05:54:47.276Z,95855.8
2022-12-17T05:55:49.239Z,95851.3
2022-12-17T05:56:51.721Z,95854.3
2022-12-17T05:58:58.642Z,95859.6
2022-12-17T06:00:01.143Z,95859.8
2022-12-17T06:01:03.407Z,95860.6
2022-12-17T06:02:05.700Z,95862.7
2022-12-17T06:03:08.466Z,95865.1
2022-12-17T06:04:11.466Z,95864.2
2022-12-17T06:05:14.029Z,95868.3
2022-12-17T06:06:16.262Z,95866.5
2022-12-17T06:07:18.743Z,95861.4
2022-12-17T06:08:21.246Z,95864.7
2022-12-17T06:09:23.761Z,95872
2022-12-17T06:10:25.980Z,95871.2
2022-12-17T06:11:28.201Z,95871.4
2022-12-17T06:12:30.670Z,95868.8
2022-12-17T06:13:34.092Z,95870.2
2022-12-17T06:14:37.258Z,95870.7
2022-12-17T06:15:39.452Z,95878.3
2022-12-17T06:16:41.997Z,95880
2022-12-17T06:17:44.218Z,95879.3
2022-12-17T06:18:46.696Z,95882.5
2022-12-17T06:19:48.913Z,95886.8
2022-12-17T06:20:51.467Z,95880.9
2022-12-17T06:21:53.666Z,95887.7
2022-12-17T06:22:55.877Z,95887.5
2022-12-17T06:23:58.100Z,95893.3
2022-12-17T06:25:00.305Z,95892.5
2022-12-17T06:26:02.820Z,95897.7
2022-12-17T06:27:05.291Z,95892.6
2022-12-17T06:28:07.207Z,95897
2022-12-17T06:29:09.691Z,95898.1
2022-12-17T06:31:17.481Z,95902.2
2022-12-17T06:32:20.073Z,95901.2
2022-12-17T06:33:22.302Z,95902.4
2022-12-17T06:34:24.783Z,95899.7
2022-12-17T06:35:27.271Z,95899.8
2022-12-17T06:36:29.486Z,95906.8
2022-12-17T06:37:31.676Z,95904.7
2022-12-17T06:38:33.609Z,95904
2022-12-17T06:39:36.156Z,95902.3
2022-12-17T06:40:38.376Z,95906.8
2022-12-17T06:41:40.881Z,95906
2022-12-17T06:42:43.375Z,95906.6
2022-12-17T06:43:45.586Z,95910.8
2022-12-17T06:44:47.506Z,95910.3
2022-12-17T06:45:50.008Z,95912.9
2022-12-17T06:46:52.319Z,95919.1
2022-12-17T06:47:54.749Z,95920.8
2022-12-17T06:48:56.978Z,95924.7
2022-12-17T06:51:04.183Z,95923.8
2022-12-17T06:52:06.667Z,95924.5
2022-12-17T06:53:08.609Z,95928.5
2022-12-17T06:54:11.110Z,95926.3
2022-12-17T06:55:13.057Z,95932.1
2022-12-17T06:56:15.284Z,95939
2022-12-17T06:57:17.544Z,95943.3
2022-12-17T06:58:19.752Z,95941.1
2022-12-17T06:59:22.248Z,95941
2022-12-17T07:00:24.728Z,95947.9
2022-12-17T07:01:27.779Z,95940.9
2022-12-17T07:02:31.405Z,95940.8
2022-12-17T07:03:34.740Z,95945.4
2022-12-17T07:04:37.878Z,95947.2
2022-12-17T07:05:40.082Z,95951.3
2022-12-17T07:06:42.331Z,95951.9
2022-12-17T07:07:44.825Z,95955.5
2022-12-17T07:08:47.359Z,95958.2
2022-12-17T07:09:49.352Z,95957.7
2022-12-17T07:10:52.807Z,95960.3
2022-12-17T07:12:01.663Z,95956.3
2022-12-17T07:13:04.486Z,95961.1
2022-12-17T07:14:06.679Z,95959.3
2022-12-17T07:15:08.889Z,95965.3
2022-12-17T07:16:11.995Z,95968.3
2022-12-17T07:17:14.599Z,95963.8
2022-12-17T07:18:17.090Z,95969.2
2022-12-17T07:20:24.451Z,95968.8
2022-12-17T07:21:26.966Z,95966.4
2022-12-17T07:22:29.185Z,95969.3
2022-12-17T07:23:31.404Z,95970.1
2022-12-17T07:24:33.617Z,95969.6
2022-12-17T07:25:35.825Z,95966.8
2022-12-17T07:26:38.050Z,95966.1
2022-12-17T07:27:40.012Z,95968.7
2022-12-17T07:28:42.557Z,95968.4
2022-12-17T07:29:45.079Z,95966.1
2022-12-17T07:31:52.937Z,95967.9
2022-12-17T07:32:55.730Z,95969.3
2022-12-17T07:33:58.743Z,95973.5
2022-12-17T07:35:00.962Z,95976.8
2022-12-17T07:36:03.211Z,95969.5
2022-12-17T07:37:05.427Z,95971.5
2022-12-17T07:38:07.651Z,95974
2022-12-17T07:39:09.854Z,95975.8
2022-12-17T07:40:12.049Z,95977.6
2022-12-17T07:41:14.544Z,95974.3
2022-12-17T07:42:17.056Z,95981.1
2022-12-17T07:43:19.341Z,95983.3
2022-12-17T07:44:21.306Z,95989.9
2022-12-17T07:45:23.811Z,95990.7
2022-12-17T07:46:26.384Z,95992.5
2022-12-17T07:47:28.310Z,95995.3
2022-12-17T07:48:30.232Z,95992.9
2022-12-17T07:49:32.442Z,95997.6
2022-12-17T07:50:34.654Z,96002.6
2022-12-17T07:51:36.639Z,95998.6
2022-12-17T07:52:39.171Z,95999.4
2022-12-17T07:53:41.661Z,95999
2022-12-17T07:54:44.150Z,95995.9
2022-12-17T07:55:46.639Z,96003.7
2022-12-17T07:56:48.891Z,96000
2022-12-17T07:57:51.397Z,96004
2022-12-17T07:58:53.919Z,96001.4
2022-12-17T07:59:58.603Z,96001.8
2022-12-17T08:01:01.331Z,96002.5
2022-12-17T08:02:04.487Z,96003.4
2022-12-17T08:03:07.789Z,96001.2
2022-12-17T08:04:10.919Z,96001.8
2022-12-17T08:05:13.406Z,96005.4
2022-12-17T08:06:15.034Z,96003.3
2022-12-17T08:07:16.991Z,95999.4
2022-12-17T08:08:19.459Z,96004.8
2022-12-17T08:09:21.962Z,96005.4
2022-12-17T08:10:23.880Z,96003.7
2022-12-17T08:11:26.363Z,96005.9
2022-12-17T08:12:28.909Z,96006.1
2022-12-17T08:13:31.434Z,96004.7
2022-12-17T08:14:33.696Z,96006.7
2022-12-17T08:15:36.201Z,96005.4
2022-12-17T08:16:38.604Z,96004.3
2022-12-17T08:17:41.463Z,96009.6
2022-12-17T08:18:44.343Z,96009.5
2022-12-17T08:19:46.848Z,96007.6
2022-12-17T08:20:49.094Z,96016.8
2022-12-17T08:21:51.478Z,96017
2022-12-17T08:22:55.056Z,96019.9
2022-12-17T08:23:57.272Z,96022
2022-12-17T08:24:59.754Z,96027.4
2022-12-17T08:26:01.674Z,96027.3
2022-12-17T08:27:04.156Z,96026.9
2022-12-17T08:29:11.757Z,96030.8
2022-12-17T08:30:13.151Z,96030.5
2022-12-17T08:31:16.032Z,96030.1
2022-12-17T08:32:18.375Z,96033.7
2022-12-17T08:33:20.598Z,96033.2
2022-12-17T08:34:23.072Z,96034.3
2022-12-17T08:35:25.555Z,96035.4
2022-12-17T08:36:27.489Z,96036.2
2022-12-17T08:37:29.677Z,96046
2022-12-17T08:38:32.129Z,96039.2
2022-12-17T08:39:34.334Z,96041.9
2022-12-17T08:40:36.813Z,96045.3
2022-12-17T08:41:39.296Z,96049.6
2022-12-17T08:42:41.214Z,96047.9
2022-12-17T08:43:43.715Z,96050.5
2022-12-17T08:44:46.208Z,96048.8
2022-12-17T08:45:48.666Z,96045.9
2022-12-17T08:46:51.305Z,96049.6
2022-12-17T08:47:53.786Z,96050.9
2022-12-17T08:49:00.710Z,96051
2022-12-17T08:50:02.935Z,96049.1
2022-12-17T08:51:05.421Z,96050.2
2022-12-17T08:52:07.628Z,96046.3
2022-12-17T08:53:09.814Z,96052.3
2022-12-17T08:54:12.487Z,96053.5
2022-12-17T08:55:14.685Z,96056.7
2022-12-17T08:56:17.172Z,96055.6
2022-12-17T08:58:24.911Z,96058.6
2022-12-17T08:59:27.281Z,96060.1
2022-12-17T09:00:29.798Z,96062.2
2022-12-17T09:01:32.842Z,96058.9
2022-12-17T09:02:36.180Z,96057.5
2022-12-17T09:03:41.233Z,96054.2
2022-12-17T09:04:44.188Z,96053
2022-12-17T09:05:46.682Z,96052.6
2022-12-17T09:06:48.901Z,96052
2022-12-17T09:07:51.105Z,96056.2
2022-12-17T09:08:53.324Z,96059.2
2022-12-17T09:09:55.867Z,96058.5
2022-12-17T09:10:58.106Z,96053.6
2022-12-17T09:12:00.596Z,96063.8
2022-12-17T09:14:08.067Z,96064.5
2022-12-17T09:15:10.557Z,96067.7
2022-12-17T09:16:13.348Z,96065.6
2022-12-17T09:17:15.950Z,96064.2
2022-12-17T09:18:18.470Z,96066.5
2022-12-17T09:19:20.965Z,96072.3
2022-12-17T09:21:28.145Z,96075.6
2022-12-17T09:22:29.894Z,96073
2022-12-17T09:23:32.081Z,96074.8
2022-12-17T09:24:34.292Z,96079
2022-12-17T09:25:36.826Z,96081.1
2022-12-17T09:26:39.323Z,96076.7
2022-12-17T09:27:41.819Z,96083.5
2022-12-17T09:28:44.485Z,96079
2022-12-17T09:29:46.695Z,96080.5
2022-12-17T09:30:49.205Z,96084.5
2022-12-17T09:31:51.312Z,96088
2022-12-17T09:32:53.546Z,96088
2022-12-17T09:33:56.042Z,96084.9
2022-12-17T09:34:57.958Z,96087.3
2022-12-17T09:36:00.184Z,96087.7
2022-12-17T09:37:02.373Z,96088
2022-12-17T09:38:04.008Z,96091.7
2022-12-17T09:39:06.682Z,96090.9
2022-12-17T09:40:08.595Z,96094.9
2022-12-17T09:41:12.042Z,96094.8
2022-12-17T09:42:14.242Z,96093.3
2022-12-17T09:43:16.181Z,96090.7
2022-12-17T09:44:17.860Z,96092
2022-12-17T09:45:20.371Z,96094.8
2022-12-17T09:46:23.389Z,96091.5
2022-12-17T09:47:26.080Z,96095.5
2022-12-17T09:49:33.590Z,96099.1
2022-12-17T09:50:35.857Z,96095.7
2022-12-17T09:51:38.373Z,96093.8
2022-12-17T09:52:40.609Z,96094.5
2022-12-17T09:53:42.850Z,96095.2
2022-12-17T09:54:45.107Z,96097.7
2022-12-17T09:55:47.348Z,96094.2
2022-12-17T09:56:49.585Z,96099.3
2022-12-17T09:57:52.070Z,96094.9
2022-12-17T09:58:54.550Z,96094.9
2022-12-17T09:59:57.088Z,96098.8
2022-12-17T10:02:05.116Z,96105.9
2022-12-17T10:03:08.537Z,96108.6
2022-12-17T10:04:12.009Z,96108.5
2022-12-17T10:05:14.241Z,96106.7
2022-12-17T10:07:21.730Z,96107
2022-12-17T10:08:24.226Z,96107.4
2022-12-17T10:09:26.747Z,96106.1
2022-12-17T10:10:28.675Z,96103.8
2022-12-17T10:12:36.022Z,96108.3
2022-12-17T10:13:39.797Z,96109.8
2022-12-17T10:14:42.660Z,96103.1
2022-12-17T10:15:44.820Z,96107.4
2022-12-17T10:16:47.096Z,96111.5
2022-12-17T10:17:49.293Z,96106.2
2022-12-17T10:18:51.815Z,96105
2022-12-17T10:19:59.395Z,96105.6
2022-12-17T10:21:01.977Z,96102.9
2022-12-17T10:22:04.203Z,96101.7
2022-12-17T10:23:05.849Z,96103.4
2022-12-17T10:24:08.340Z,96099.1
2022-12-17T10:25:10.258Z,96101.7
2022-12-17T10:26:12.747Z,96099.7
2022-12-17T10:27:15.225Z,96094.5
2022-12-17T10:28:17.747Z,96095.9
2022-12-17T10:29:20.228Z,96097.6
2022-12-17T10:30:22.713Z,96096.2
2022-12-17T10:31:25.517Z,96101.9
2022-12-17T10:32:28.131Z,96100.9
2022-12-17T10:33:30.317Z,96101.1
2022-12-17T10:34:32.567Z,96106.3
2022-12-17T10:35:34.225Z,96104.3
2022-12-17T10:36:36.492Z,96111.8
2022-12-17T10:37:39.005Z,96111.4
2022-12-17T10:38:41.240Z,96112.1
2022-12-17T10:39:43.456Z,96116.6
2022-12-17T10:40:45.947Z,96113.9
2022-12-17T10:41:47.872Z,96115.8
2022-12-17T10:42:50.371Z,96122.1
2022-12-17T10:43:52.912Z,96123.3
2022-12-17T10:44:55.125Z,96120.3
2022-12-17T10:45:57.759Z,96125.6
2022-12-17T10:47:00.038Z,96124.3
2022-12-17T10:48:02.529Z,96124.7
2022-12-17T10:50:10.018Z,96125.3
2022-12-17T10:51:11.970Z,96128.8
2022-12-17T10:52:14.489Z,96129.7
2022-12-17T10:53:16.998Z,96121.6
2022-12-17T10:54:19.487Z,96122.3
2022-12-17T10:55:21.962Z,96121.2
2022-12-17T10:56:24.450Z,96129.3
2022-12-17T10:57:26.937Z,96131.4
2022-12-17T10:58:29.442Z,96129.4
2022-12-17T10:59:31.966Z,96130.2
2022-12-17T11:00:34.175Z,96130.2
2022-12-17T11:01:37.248Z,96131.1
2022-12-17T11:02:40.805Z,96131.2
2022-12-17T11:03:44.318Z,96129
2022-12-17T11:04:46.649Z,96136.5
2022-12-17T11:05:49.158Z,96130.2
2022-12-17T11:06:51.080Z,96132.9
2022-12-17T11:07:53.569Z,96133.3
2022-12-17T11:08:56.142Z,96132.5
2022-12-17T11:11:04.316Z,96135.2
2022-12-17T11:12:08.735Z,96133.1
2022-12-17T11:13:11.214Z,96134.2
2022-12-17T11:14:13.418Z,96139.1
2022-12-17T11:15:15.954Z,96135.9
2022-12-17T11:16:18.481Z,96135.8
2022-12-17T11:17:20.987Z,96136.4
2022-12-17T11:18:23.470Z,96131
2022-12-17T11:19:25.662Z,96131.8
2022-12-17T11:20:27.862Z,96132
2022-12-17T11:21:30.109Z,96133.8
2022-12-17T11:22:32.608Z,96132.8
2022-12-17T11:23:36.877Z,96133.7
2022-12-17T11:24:39.813Z,96129
2022-12-17T11:25:42.303Z,96133
2022-12-17T11:26:44.776Z,96128.6
2022-12-17T11:27:46.686Z,96129.4
2022-12-17T11:28:49.153Z,96128.9
2022-12-17T11:29:51.643Z,96131
2022-12-17T11:30:53.816Z,96129.7
2022-12-17T11:31:56.131Z,96130
2022-12-17T11:32:58.610Z,96126.8
2022-12-17T11:34:00.822Z,96131.2
2022-12-17T11:35:02.737Z,96126
2022-12-17T11:36:05.239Z,96124.9
2022-12-17T11:37:07.747Z,96124.5
2022-12-17T11:38:10.250Z,96123.3
2022-12-17T11:39:12.858Z,96123
2022-12-17T11:40:15.494Z,96128.2
2022-12-17T11:41:18.041Z,96122.5
2022-12-17T11:42:20.526Z,96126.2
2022-12-17T11:43:22.742Z,96126.8
2022-12-17T11:44:24.685Z,96131.4
2022-12-17T11:45:27.169Z,96130.6
2022-12-17T11:46:30.058Z,96127.9
2022-12-17T11:47:32.355Z,96124.8
2022-12-17T11:48:35.847Z,96123
2022-12-17T11:49:38.658Z,96123.2
2022-12-17T11:50:40.865Z,96118.3
2022-12-17T11:51:43.342Z,96119.3
2022-12-17T11:52:45.602Z,96121.4
2022-12-17T11:53:48.087Z,96123.7
2022-12-17T11:54:50.600Z,96129.5
2022-12-17T11:55:52.818Z,96128.9
2022-12-17T11:56:55.047Z,96125.8
2022-12-17T11:57:57.530Z,96132
2022-12-17T11:58:59.894Z,96129.7
2022-12-17T12:01:07.577Z,96132
2022-12-17T12:02:09.549Z,96129
2022-12-17T12:03:12.806Z,96130
2022-12-17T12:04:15.948Z,96129.7
2022-12-17T12:05:18.526Z,96132.6
2022-12-17T12:06:21.000Z,96127.8
2022-12-17T12:07:23.489Z,96134.5
2022-12-17T12:08:25.756Z,96132.6
2022-12-17T12:09:28.245Z,96132.1
2022-12-17T12:10:30.874Z,96130.7
2022-12-17T12:11:33.595Z,96133.1
2022-12-17T12:12:36.074Z,96132.5
2022-12-17T12:13:38.564Z,96135.4
2022-12-17T12:14:41.035Z,96142.7
2022-12-17T12:15:43.602Z,96135.3
2022-12-17T12:16:46.533Z,96137.7
2022-12-17T12:17:49.204Z,96137.4
2022-12-17T12:18:51.679Z,96136.1
2022-12-17T12:19:54.168Z,96140.2
2022-12-17T12:20:56.652Z,96138.3
2022-12-17T12:21:59.130Z,96135.4
2022-12-17T12:23:01.334Z,96137.9
2022-12-17T12:24:03.859Z,96138.6
2022-12-17T12:25:06.056Z,96134.3
2022-12-17T12:26:08.011Z,96131.7
2022-12-17T12:27:10.225Z,96130.3
2022-12-17T12:28:12.713Z,96129.5
2022-12-17T12:29:15.207Z,96132.4
2022-12-17T12:30:17.407Z,96131.2
2022-12-17T12:31:19.914Z,96131.6
2022-12-17T12:32:22.233Z,96131.4
2022-12-17T12:33:24.749Z,96135.6
2022-12-17T12:34:27.236Z,96132.1
2022-12-17T12:35:29.434Z,96135.9
2022-12-17T12:36:31.924Z,96133.2
2022-12-17T12:37:34.412Z,96134.8
2022-12-17T12:39:42.970Z,96129.1
2022-12-17T12:40:44.624Z,96134.3
2022-12-17T12:41:47.148Z,96130.1
2022-12-17T12:42:49.152Z,96134.9
2022-12-17T12:43:51.645Z,96137.7
2022-12-17T12:44:53.848Z,96139.3
2022-12-17T12:45:56.724Z,96135.9
2022-12-17T12:47:00.089Z,96139.6
2022-12-17T12:48:02.581Z,96135.9
2022-12-17T12:49:04.839Z,96139.9
2022-12-17T12:50:07.343Z,96135.5
2022-12-17T12:51:09.272Z,96137
2022-12-17T12:52:12.302Z,96142.5
2022-12-17T12:53:14.779Z,96138.4
2022-12-17T12:54:17.271Z,96141
2022-12-17T12:55:19.507Z,96142.3
2022-12-17T12:56:21.704Z,96137.3
2022-12-17T12:57:23.948Z,96141
2022-12-17T12:58:30.874Z,96137
2022-12-17T12:59:32.781Z,96139.3
2022-12-17T13:00:34.953Z,96140.1
2022-12-17T13:01:38.167Z,96143.8
2022-12-17T13:02:41.618Z,96139.1
2022-12-17T13:03:44.759Z,96144.5
2022-12-17T13:04:47.462Z,96144.2
2022-12-17T13:05:49.671Z,96143.5
2022-12-17T13:06:52.181Z,96141.9